Time;durP1;ratioP1;P1;durP2;ratioP2;P2;SDS_P1;SDS_P2;PMS_P1;PMS_P2;Temp;Humidity;BMP_temperature;BMP_pressure;BME280_temperature;BME280_humidity;BME280_pressure;Samples;Min_cycle;Max_cycle;Signal;HPM_P1;HPM_P2
2023/06/14 00:00:35;;;;;;;14.65;5.85;;;;;;;;;;5054108;28;20119;-82
2023/06/14 00:03:02;;;;;;;16.48;6.50;;;;;;;;;;5037935;28;20127;-82
2023/06/14 00:05:29;;;;;;;20.60;6.85;;;;;;;;;;5071026;28;20025;-83
2023/06/14 00:07:55;;;;;;;18.35;7.10;;;;;;;;;;5037845;28;20051;-82
2023/06/14 00:13:04;;;;;;;18.42;6.68;;;;;;;;;;5068569;28;20028;-82
2023/06/14 00:15:30;;;;;;;17.55;6.78;;;;;;;;;;5054404;28;20021;-83
2023/06/14 00:18:00;;;;;;;19.83;6.72;;;;;;;;;;5070660;28;20025;-82
2023/06/14 00:20:27;;;;;;;25.95;6.75;;;;;;;;;;5070163;28;20025;-82
2023/06/14 00:22:53;;;;;;;31.83;7.05;;;;;;;;;;5053842;28;20530;-82
2023/06/14 00:25:19;;;;;;;17.30;6.78;;;;;;;;;;5037482;28;20031;-82
2023/06/14 00:27:45;;;;;;;33.40;7.22;;;;;;;;;;5036281;28;20020;-82
2023/06/14 00:30:10;;;;;;;26.52;7.57;;;;;;;;;;5070243;28;20074;-81
2023/06/14 00:32:36;;;;;;;22.90;6.72;;;;;;;;;;5036901;28;20025;-82
2023/06/14 00:35:01;;;;;;;22.83;6.80;;;;;;;;;;5052711;28;20098;-83
2023/06/14 00:37:27;;;;;;;29.63;7.82;;;;;;;;;;5036999;28;20033;-82
2023/06/14 00:39:52;;;;;;;19.10;7.82;;;;;;;;;;5054843;28;20466;-82
2023/06/14 00:42:27;;;;;;;33.08;8.05;;;;;;;;;;5054715;28;20033;-84
2023/06/14 00:44:52;;;;;;;19.38;8.02;;;;;;;;;;5054753;28;20025;-83
2023/06/14 00:47:18;;;;;;;33.05;8.27;;;;;;;;;;5053377;28;20021;-82
2023/06/14 00:49:45;;;;;;;20.33;8.20;;;;;;;;;;5054691;28;20336;-83
2023/06/14 00:52:12;;;;;;;19.25;8.35;;;;;;;;;;5053331;28;20079;-83
2023/06/14 00:54:38;;;;;;;27.55;8.88;;;;;;;;;;5053360;28;20132;-83
2023/06/14 00:57:03;;;;;;;20.05;8.48;;;;;;;;;;5053691;28;20127;-82
2023/06/14 00:59:29;;;;;;;20.33;8.18;;;;;;;;;;5069854;28;20094;-83
2023/06/14 01:01:54;;;;;;;22.20;8.07;;;;;;;;;;5069789;28;20422;-83
2023/06/14 01:04:20;;;;;;;16.27;8.40;;;;;;;;;;5053171;28;20029;-83
2023/06/14 01:06:51;;;;;;;24.05;8.95;;;;;;;;;;5069806;28;20064;-82
2023/06/14 01:09:17;;;;;;;18.60;8.52;;;;;;;;;;5054299;28;20036;-83
2023/06/14 01:12:01;;;;;;;12.45;7.75;;;;;;;;;;5036499;28;20032;-81
2023/06/14 01:14:26;;;;;;;18.05;8.60;;;;;;;;;;5020467;28;20445;-83
2023/06/14 01:16:52;;;;;;;20.27;7.85;;;;;;;;;;5036186;28;20025;-82
2023/06/14 01:19:18;;;;;;;26.02;8.13;;;;;;;;;;5036319;28;20025;-83
2023/06/14 01:21:44;;;;;;;19.10;8.52;;;;;;;;;;5036322;28;20036;-81
2023/06/14 01:24:10;;;;;;;27.20;8.48;;;;;;;;;;5036293;28;20064;-83
2023/06/14 01:26:37;;;;;;;16.40;8.32;;;;;;;;;;5036398;28;20025;-82
2023/06/14 01:29:03;;;;;;;17.55;7.80;;;;;;;;;;5036173;28;20021;-83
2023/06/14 01:31:29;;;;;;;12.73;8.27;;;;;;;;;;5036430;28;20028;-82
2023/06/14 01:33:54;;;;;;;24.58;8.00;;;;;;;;;;5036642;28;20024;-83
2023/06/14 01:36:20;;;;;;;17.17;7.75;;;;;;;;;;5034015;28;20036;-83
2023/06/14 01:38:46;;;;;;;19.52;8.35;;;;;;;;;;5035705;28;20103;-83
2023/06/14 01:41:11;;;;;;;26.55;8.65;;;;;;;;;;5019474;28;20052;-84
2023/06/14 01:43:37;;;;;;;15.55;8.63;;;;;;;;;;5019485;28;20021;-83
2023/06/14 01:46:02;;;;;;;18.17;8.32;;;;;;;;;;5035896;28;20016;-83
2023/06/14 01:48:27;;;;;;;23.05;8.27;;;;;;;;;;5036049;28;20025;-82
2023/06/14 01:50:53;;;;;;;16.45;8.38;;;;;;;;;;5052488;28;20021;-82
2023/06/14 01:53:18;;;;;;;19.02;8.88;;;;;;;;;;5035855;28;20064;-83
2023/06/14 01:55:44;;;;;;;15.57;9.32;;;;;;;;;;5053629;28;20081;-83
2023/06/14 01:58:10;;;;;;;21.23;8.88;;;;;;;;;;5019551;28;20123;-82
2023/06/14 02:00:36;;;;;;;21.95;8.75;;;;;;;;;;5035934;28;20029;-83
2023/06/14 02:03:02;;;;;;;13.88;9.05;;;;;;;;;;5052508;28;20438;-82
2023/06/14 02:05:27;;;;;;;20.90;8.13;;;;;;;;;;5035916;28;20463;-83
2023/06/14 02:07:55;;;;;;;19.92;9.00;;;;;;;;;;5035484;28;20197;-84
2023/06/14 02:10:21;;;;;;;22.35;9.32;;;;;;;;;;5035963;28;20417;-82
2023/06/14 02:12:46;;;;;;;17.75;9.50;;;;;;;;;;5035669;28;20111;-83
2023/06/14 02:15:19;;;;;;;25.17;8.98;;;;;;;;;;5053476;28;20358;-82
2023/06/14 02:17:46;;;;;;;24.95;9.38;;;;;;;;;;5053736;28;20032;-83
2023/06/14 02:20:12;;;;;;;17.08;9.70;;;;;;;;;;5035962;28;20171;-82
2023/06/14 02:22:37;;;;;;;25.40;9.75;;;;;;;;;;5019531;28;20444;-83
2023/06/14 02:25:03;;;;;;;20.17;9.65;;;;;;;;;;5035325;28;20028;-84
2023/06/14 02:27:29;;;;;;;26.55;9.30;;;;;;;;;;5035400;28;20025;-83
2023/06/14 02:29:54;;;;;;;27.67;9.55;;;;;;;;;;5035462;28;20035;-83
2023/06/14 02:32:20;;;;;;;21.13;9.40;;;;;;;;;;5053260;28;20113;-83
2023/06/14 02:34:49;;;;;;;20.52;9.27;;;;;;;;;;5035528;28;20025;-83
2023/06/14 02:37:14;;;;;;;26.92;9.65;;;;;;;;;;5036093;28;20032;-83
2023/06/14 02:39:40;;;;;;;29.67;9.40;;;;;;;;;;5045812;28;20021;-83
2023/06/14 02:42:06;;;;;;;19.33;9.25;;;;;;;;;;5053141;28;20439;-83
2023/06/14 02:44:32;;;;;;;18.23;9.30;;;;;;;;;;5051977;28;20029;-83
2023/06/14 02:46:58;;;;;;;22.25;10.57;;;;;;;;;;5053744;28;20484;-83
2023/06/14 02:49:24;;;;;;;26.58;10.50;;;;;;;;;;5035402;28;20064;-83
2023/06/14 02:51:49;;;;;;;22.80;9.65;;;;;;;;;;5054641;28;20439;-82
2023/06/14 02:54:15;;;;;;;24.65;11.13;;;;;;;;;;5038743;28;20037;-83
2023/06/14 02:56:40;;;;;;;20.80;10.50;;;;;;;;;;5055644;28;20029;-83
2023/06/14 02:59:07;;;;;;;26.00;10.60;;;;;;;;;;5055631;28;20025;-82
2023/06/14 03:01:35;;;;;;;28.60;11.10;;;;;;;;;;5055536;28;20552;-84
2023/06/14 03:04:01;;;;;;;26.17;10.77;;;;;;;;;;5023147;28;20066;-83
2023/06/14 03:06:30;;;;;;;21.20;10.15;;;;;;;;;;5056242;28;20025;-83
2023/06/14 03:08:59;;;;;;;30.52;11.45;;;;;;;;;;5058902;28;20029;-82
2023/06/14 03:11:24;;;;;;;24.33;11.32;;;;;;;;;;5075457;28;20028;-83
2023/06/14 03:13:50;;;;;;;27.38;11.32;;;;;;;;;;5076503;28;20021;-82
2023/06/14 03:16:19;;;;;;;25.42;11.48;;;;;;;;;;5058655;28;20051;-83
2023/06/14 03:18:45;;;;;;;24.95;11.27;;;;;;;;;;5076543;28;20031;-83
2023/06/14 03:21:10;;;;;;;31.85;12.20;;;;;;;;;;5058359;28;20442;-83
2023/06/14 03:23:36;;;;;;;27.50;12.10;;;;;;;;;;5058358;28;20029;-82
2023/06/14 03:26:01;;;;;;;28.15;11.38;;;;;;;;;;5075111;28;20099;-83
2023/06/14 03:28:27;;;;;;;27.50;11.18;;;;;;;;;;5058708;28;20358;-82
2023/06/14 03:30:52;;;;;;;26.00;10.82;;;;;;;;;;5058484;28;20515;-83
2023/06/14 03:33:18;;;;;;;22.25;11.00;;;;;;;;;;5058383;28;20075;-83
2023/06/14 03:35:43;;;;;;;20.98;10.38;;;;;;;;;;5058039;28;20044;-82
2023/06/14 03:38:09;;;;;;;33.90;11.05;;;;;;;;;;5057931;28;20402;-83
2023/06/14 03:40:34;;;;;;;18.52;11.00;;;;;;;;;;5045999;28;20024;-82
2023/06/14 03:43:00;;;;;;;24.88;11.27;;;;;;;;;;5038137;28;20068;-82
2023/06/14 03:45:25;;;;;;;27.90;11.25;;;;;;;;;;5038083;28;20029;-82
2023/06/14 03:47:51;;;;;;;21.83;10.10;;;;;;;;;;5038163;28;20063;-82
2023/06/14 03:50:18;;;;;;;25.33;10.57;;;;;;;;;;5038358;28;20477;-81
2023/06/14 03:52:43;;;;;;;18.50;9.38;;;;;;;;;;5021455;28;20052;-81
2023/06/14 03:55:09;;;;;;;19.27;10.18;;;;;;;;;;5038203;28;20410;-82
2023/06/14 03:57:35;;;;;;;22.50;10.25;;;;;;;;;;5038188;28;20363;-81
2023/06/14 04:00:00;;;;;;;17.17;9.52;;;;;;;;;;5037813;28;20025;-81
2023/06/14 04:02:28;;;;;;;24.95;9.85;;;;;;;;;;5037931;28;20131;-81
2023/06/14 04:04:54;;;;;;;17.60;10.23;;;;;;;;;;5055914;28;20029;-80
2023/06/14 04:07:20;;;;;;;19.73;9.75;;;;;;;;;;5055280;28;20053;-81
2023/06/14 04:09:46;;;;;;;23.98;10.32;;;;;;;;;;5055523;28;20033;-81
2023/06/14 04:12:11;;;;;;;17.48;9.65;;;;;;;;;;5070826;28;20041;-84
2023/06/14 04:14:37;;;;;;;22.92;9.82;;;;;;;;;;5037521;28;20668;-85
2023/06/14 04:17:03;;;;;;;21.58;10.07;;;;;;;;;;5037446;28;20431;-82
2023/06/14 04:19:28;;;;;;;20.17;11.25;;;;;;;;;;5037485;28;20052;-84
2023/06/14 04:21:53;;;;;;;21.70;11.15;;;;;;;;;;5070244;28;20383;-81
2023/06/14 04:24:19;;;;;;;29.05;11.57;;;;;;;;;;5055099;28;20431;-82
2023/06/14 04:26:44;;;;;;;27.48;10.77;;;;;;;;;;5055162;28;20025;-82
2023/06/14 04:29:14;;;;;;;33.60;11.13;;;;;;;;;;5054434;28;20033;-80
2023/06/14 04:31:44;;;;;;;27.60;11.20;;;;;;;;;;5020153;28;20045;-81
2023/06/14 04:34:16;;;;;;;23.02;11.00;;;;;;;;;;5036658;28;20029;-81
2023/06/14 04:36:43;;;;;;;26.70;11.05;;;;;;;;;;5052623;28;20378;-79
2023/06/14 04:39:08;;;;;;;21.45;10.82;;;;;;;;;;5020560;28;20029;-80
2023/06/14 04:41:34;;;;;;;21.77;10.73;;;;;;;;;;5057514;28;20336;-81
2023/06/14 04:44:01;;;;;;;24.55;10.02;;;;;;;;;;5037140;28;20367;-86
2023/06/14 04:46:31;;;;;;;19.83;10.95;;;;;;;;;;5066801;28;20025;-85
2023/06/14 04:48:57;;;;;;;28.55;11.48;;;;;;;;;;5064696;28;20025;-86
2023/06/14 04:51:29;;;;;;;28.63;11.80;;;;;;;;;;5033495;28;20029;-84
2023/06/14 04:53:56;;;;;;;30.73;11.18;;;;;;;;;;5031332;28;20149;-85
2023/06/14 04:56:23;;;;;;;28.38;11.60;;;;;;;;;;5057521;28;20459;-85
2023/06/14 04:58:48;;;;;;;22.33;11.23;;;;;;;;;;5058348;28;20029;-85
2023/06/14 05:01:14;;;;;;;26.50;10.73;;;;;;;;;;5042932;28;20151;-86
2023/06/14 05:03:45;;;;;;;22.23;10.57;;;;;;;;;;5029227;28;20057;-84
2023/06/14 05:06:11;;;;;;;21.67;10.68;;;;;;;;;;5053253;28;20029;-85
2023/06/14 05:08:37;;;;;;;16.73;10.00;;;;;;;;;;5031733;28;20038;-85
2023/06/14 05:11:02;;;;;;;30.27;11.65;;;;;;;;;;5026469;28;20033;-85
2023/06/14 05:13:28;;;;;;;23.90;11.75;;;;;;;;;;5023821;28;20095;-87
2023/06/14 05:15:54;;;;;;;22.33;11.40;;;;;;;;;;5039207;28;20428;-86
2023/06/14 05:18:19;;;;;;;20.33;11.40;;;;;;;;;;5041290;28;20033;-86
2023/06/14 05:20:45;;;;;;;21.48;10.68;;;;;;;;;;4995699;28;20040;-86
2023/06/14 05:23:14;;;;;;;40.30;11.30;;;;;;;;;;5027232;28;20044;-83
2023/06/14 05:25:43;;;;;;;21.30;9.73;;;;;;;;;;5042419;28;20083;-85
2023/06/14 05:28:09;;;;;;;17.58;9.90;;;;;;;;;;5046038;28;20353;-85
2023/06/14 05:30:35;;;;;;;25.08;9.73;;;;;;;;;;5049794;28;20037;-85
2023/06/14 05:33:01;;;;;;;16.60;9.00;;;;;;;;;;5051623;28;20115;-85
2023/06/14 05:35:26;;;;;;;20.45;8.40;;;;;;;;;;5036160;28;20072;-85
2023/06/14 05:37:53;;;;;;;15.90;8.23;;;;;;;;;;5034607;28;20098;-85
2023/06/14 05:40:19;;;;;;;16.17;8.68;;;;;;;;;;5052012;28;20070;-85
2023/06/14 05:42:45;;;;;;;16.42;8.20;;;;;;;;;;5033201;28;20358;-85
2023/06/14 05:45:10;;;;;;;24.13;8.68;;;;;;;;;;5030991;28;20065;-86
2023/06/14 05:47:55;;;;;;;18.25;8.52;;;;;;;;;;5062692;28;20029;-87
2023/06/14 05:50:21;;;;;;;13.00;8.15;;;;;;;;;;5047663;28;20040;-88
2023/06/14 05:52:49;;;;;;;17.10;8.10;;;;;;;;;;5031921;28;20064;-86
2023/06/14 05:55:16;;;;;;;18.58;7.47;;;;;;;;;;5032576;28;20036;-87
2023/06/14 05:57:41;;;;;;;15.13;8.57;;;;;;;;;;5049955;28;20090;-86
2023/06/14 06:00:11;;;;;;;17.40;8.32;;;;;;;;;;5021019;28;20032;-84
2023/06/14 06:02:37;;;;;;;14.02;7.28;;;;;;;;;;5034697;28;20438;-87
2023/06/14 06:05:02;;;;;;;12.13;7.95;;;;;;;;;;5040689;28;20037;-86
2023/06/14 06:07:28;;;;;;;17.30;7.28;;;;;;;;;;5004315;28;20045;-86
2023/06/14 06:09:54;;;;;;;12.13;7.45;;;;;;;;;;5053841;28;20024;-85
2023/06/14 06:12:19;;;;;;;21.80;8.23;;;;;;;;;;5043620;28;20033;-86
2023/06/14 06:14:45;;;;;;;12.02;7.22;;;;;;;;;;5050548;28;20082;-87
2023/06/14 06:17:10;;;;;;;12.18;6.93;;;;;;;;;;5032180;28;20045;-87
2023/06/14 06:19:36;;;;;;;14.02;7.13;;;;;;;;;;5016474;28;20037;-86
2023/06/14 06:22:01;;;;;;;31.90;7.07;;;;;;;;;;5049139;28;20459;-86
2023/06/14 06:24:27;;;;;;;19.15;7.50;;;;;;;;;;5031577;28;20072;-88
2023/06/14 06:26:57;;;;;;;20.85;7.90;;;;;;;;;;5058017;28;20028;-88
2023/06/14 06:29:25;;;;;;;11.75;7.43;;;;;;;;;;5056648;28;20037;-87
2023/06/14 06:31:50;;;;;;;9.73;5.93;;;;;;;;;;5055767;28;20398;-87
2023/06/14 06:34:15;;;;;;;8.70;6.53;;;;;;;;;;5044300;28;20025;-86
2023/06/14 06:36:42;;;;;;;10.23;6.25;;;;;;;;;;5043118;28;20039;-86
2023/06/14 06:39:10;;;;;;;9.80;5.90;;;;;;;;;;5049700;28;20040;-88
2023/06/14 06:41:39;;;;;;;9.38;5.75;;;;;;;;;;5006427;28;20208;-86
2023/06/14 06:44:05;;;;;;;;;;;;;;;;;;5046774;28;20037;-86
2023/06/14 06:46:30;;;;;;;11.05;6.30;;;;;;;;;;5034954;28;19916;-85
2023/06/14 06:48:55;;;;;;;17.67;5.90;;;;;;;;;;5033010;28;20036;-85
2023/06/14 06:52:13;;;;;;;10.82;6.05;;;;;;;;;;5034960;28;20031;-87
2023/06/14 06:54:39;;;;;;;9.65;6.28;;;;;;;;;;4929542;29;20039;-88
2023/06/14 06:57:06;;;;;;;10.35;6.38;;;;;;;;;;4949097;22;20382;-86
2023/06/14 06:59:37;;;;;;;15.63;5.55;;;;;;;;;;5078751;28;20567;-84
2023/06/14 07:02:04;;;;;;;8.85;6.13;;;;;;;;;;5076407;22;20057;-86
2023/06/14 07:04:38;;;;;;;8.68;5.60;;;;;;;;;;5033369;28;20485;-87
2023/06/14 07:07:22;;;;;;;9.23;6.40;;;;;;;;;;5043149;28;20037;-86
2023/06/14 07:09:48;;;;;;;9.80;6.80;;;;;;;;;;5007572;28;20033;-86
2023/06/14 07:12:13;;;;;;;13.25;6.65;;;;;;;;;;5015277;28;20034;-85
2023/06/14 07:14:39;;;;;;;12.23;6.93;;;;;;;;;;5018743;28;20033;-87
2023/06/14 07:17:17;;;;;;;10.15;6.80;;;;;;;;;;5019022;28;20091;-85
2023/06/14 07:19:42;;;;;;;14.10;7.15;;;;;;;;;;5002643;28;20034;-87
2023/06/14 07:22:35;;;;;;;10.65;6.82;;;;;;;;;;5009201;28;20033;-86
2023/06/14 07:25:01;;;;;;;14.15;6.93;;;;;;;;;;5003573;28;20216;-87
2023/06/14 07:27:26;;;;;;;12.27;7.53;;;;;;;;;;5010264;28;20138;-87
2023/06/14 07:29:52;;;;;;;11.32;6.50;;;;;;;;;;5008645;28;20384;-87
2023/06/14 07:32:21;;;;;;;15.05;7.70;;;;;;;;;;5018019;28;20051;-86
2023/06/14 07:34:46;;;;;;;12.55;7.47;;;;;;;;;;5016062;28;20970;-86
2023/06/14 07:37:12;;;;;;;14.38;7.68;;;;;;;;;;5017724;28;20432;-85
2023/06/14 07:39:42;;;;;;;15.68;7.88;;;;;;;;;;5019497;28;20124;-86
2023/06/14 07:42:08;;;;;;;13.15;7.85;;;;;;;;;;5014097;28;20034;-86
2023/06/14 07:44:33;;;;;;;11.43;7.35;;;;;;;;;;5012243;28;20444;-87
2023/06/14 07:46:59;;;;;;;15.70;7.68;;;;;;;;;;5006686;28;20427;-87
2023/06/14 07:49:25;;;;;;;13.68;7.68;;;;;;;;;;5037810;28;20034;-85
2023/06/14 07:51:51;;;;;;;10.90;7.72;;;;;;;;;;5005656;28;20042;-87
2023/06/14 07:54:17;;;;;;;15.80;8.00;;;;;;;;;;5011244;28;20091;-87
2023/06/14 07:56:42;;;;;;;14.38;8.25;;;;;;;;;;4995501;28;20037;-88
2023/06/14 07:59:35;;;;;;;17.83;8.75;;;;;;;;;;4998176;28;20118;-87
2023/06/14 08:02:01;;;;;;;17.98;9.75;;;;;;;;;;5041830;28;20100;-86
2023/06/14 08:07:11;;;;;;;16.17;10.45;;;;;;;;;;4994327;28;20133;-85
2023/06/14 08:09:40;;;;;;;19.23;11.52;;;;;;;;;;5006933;28;20124;-86
2023/06/14 08:12:11;;;;;;;17.83;11.43;;;;;;;;;;5022896;28;20073;-85
2023/06/14 08:14:39;;;;;;;23.92;12.15;;;;;;;;;;5010838;28;20116;-85
2023/06/14 08:17:05;;;;;;;19.00;12.20;;;;;;;;;;5012450;28;20061;-85
2023/06/14 08:19:32;;;;;;;19.77;12.15;;;;;;;;;;5027238;28;20057;-84
2023/06/14 08:21:58;;;;;;;20.35;12.07;;;;;;;;;;5042916;28;20499;-85
2023/06/14 08:24:26;;;;;;;21.75;11.55;;;;;;;;;;5011350;28;20065;-86
2023/06/14 08:26:56;;;;;;;21.92;13.25;;;;;;;;;;5011124;28;20026;-87
2023/06/14 08:29:22;;;;;;;20.30;12.27;;;;;;;;;;5010883;28;20033;-86
2023/06/14 08:31:47;;;;;;;21.15;12.27;;;;;;;;;;5027778;28;20034;-86
2023/06/14 08:34:13;;;;;;;22.65;13.50;;;;;;;;;;5013366;28;20436;-85
2023/06/14 08:36:38;;;;;;;26.25;13.23;;;;;;;;;;5014822;28;20132;-84
2023/06/14 08:39:04;;;;;;;25.15;14.10;;;;;;;;;;5013237;28;20030;-85
2023/06/14 08:41:29;;;;;;;24.90;14.73;;;;;;;;;;5014850;28;20518;-86
2023/06/14 08:43:56;;;;;;;26.73;14.85;;;;;;;;;;5012905;28;20084;-87
2023/06/14 08:46:22;;;;;;;33.03;14.23;;;;;;;;;;5028005;28;20025;-86
2023/06/14 08:48:52;;;;;;;22.95;14.15;;;;;;;;;;4997613;28;20033;-85
2023/06/14 08:51:23;;;;;;;29.45;14.35;;;;;;;;;;5039750;28;20080;-85
2023/06/14 08:53:57;;;;;;;23.10;14.93;;;;;;;;;;5002257;28;20092;-87
2023/06/14 08:56:27;;;;;;;29.75;14.85;;;;;;;;;;5007715;28;20034;-86
2023/06/14 08:58:53;;;;;;;28.70;14.48;;;;;;;;;;5046641;28;20041;-85
2023/06/14 09:01:19;;;;;;;29.58;15.43;;;;;;;;;;5012731;28;20053;-85
2023/06/14 09:03:48;;;;;;;29.25;15.85;;;;;;;;;;5053341;28;20383;-86
2023/06/14 09:06:15;;;;;;;27.73;15.25;;;;;;;;;;5001598;28;20036;-88
2023/06/14 09:08:44;;;;;;;23.52;14.20;;;;;;;;;;5044723;28;20049;-85
2023/06/14 09:11:13;;;;;;;33.38;15.38;;;;;;;;;;5013312;28;20116;-87
2023/06/14 09:13:45;;;;;;;26.67;12.90;;;;;;;;;;5008974;28;20049;-85
2023/06/14 09:16:11;;;;;;;22.45;11.98;;;;;;;;;;5019845;28;20735;-86
2023/06/14 09:18:47;;;;;;;19.98;11.75;;;;;;;;;;5015432;28;20026;-85
2023/06/14 09:21:13;;;;;;;17.48;11.45;;;;;;;;;;4993884;28;20030;-86
2023/06/14 09:23:39;;;;;;;21.88;13.18;;;;;;;;;;5008215;28;20100;-79
2023/06/14 09:26:15;;;;;;;19.13;12.10;;;;;;;;;;5024677;28;20036;-80
2023/06/14 09:28:45;;;;;;;24.90;12.57;;;;;;;;;;5040661;28;20424;-78
2023/06/14 09:31:15;;;;;;;26.40;13.77;;;;;;;;;;5009177;28;20125;-79
2023/06/14 09:33:48;;;;;;;25.17;13.18;;;;;;;;;;5010827;28;20064;-79
2023/06/14 09:36:23;;;;;;;24.42;13.48;;;;;;;;;;5013493;28;20030;-79
2023/06/14 09:38:55;;;;;;;27.10;14.10;;;;;;;;;;5013943;28;20048;-79
2023/06/14 09:41:36;;;;;;;27.50;14.13;;;;;;;;;;5011158;28;20376;-78
2023/06/14 09:44:04;;;;;;;23.58;14.20;;;;;;;;;;5041010;28;20029;-78
2023/06/14 09:46:29;;;;;;;23.92;14.40;;;;;;;;;;5015052;28;20022;-79
2023/06/14 09:48:58;;;;;;;25.30;13.70;;;;;;;;;;5009753;28;20498;-80
2023/06/14 09:51:24;;;;;;;24.10;14.10;;;;;;;;;;5010779;28;20134;-80
2023/06/14 09:53:49;;;;;;;31.30;14.40;;;;;;;;;;4993195;28;20128;-81
2023/06/14 09:56:31;;;;;;;29.20;14.35;;;;;;;;;;5010981;28;20527;-80
2023/06/14 09:58:57;;;;;;;25.40;15.25;;;;;;;;;;5023622;28;20030;-81
2023/06/14 10:01:24;;;;;;;30.90;15.07;;;;;;;;;;5031799;28;20152;-81
2023/06/14 10:03:50;;;;;;;27.35;15.70;;;;;;;;;;5032745;28;20029;-78
2023/06/14 10:06:16;;;;;;;32.53;14.27;;;;;;;;;;5031022;28;20497;-80
2023/06/14 10:08:41;;;;;;;23.60;14.15;;;;;;;;;;4998526;28;20092;-80
2023/06/14 10:11:07;;;;;;;29.85;14.32;;;;;;;;;;5014972;28;20021;-81
2023/06/14 10:13:35;;;;;;;26.17;14.88;;;;;;;;;;5030975;28;20064;-81
2023/06/14 10:16:12;;;;;;;25.15;14.57;;;;;;;;;;5032315;28;20021;-80
2023/06/14 10:19:11;;;;;;;30.33;15.07;;;;;;;;;;5049995;28;20405;-78
2023/06/14 10:21:55;;;;;;;28.73;14.63;;;;;;;;;;5028683;28;20043;-79
2023/06/14 10:24:32;;;;;;;30.25;14.32;;;;;;;;;;5032591;28;20118;-79
2023/06/14 10:26:58;;;;;;;31.95;15.98;;;;;;;;;;5029466;28;20250;-80
2023/06/14 10:29:24;;;;;;;32.22;16.80;;;;;;;;;;5034170;28;20510;-79
2023/06/14 10:31:50;;;;;;;30.85;15.88;;;;;;;;;;5017546;28;20037;-80
2023/06/14 10:34:23;;;;;;;27.10;15.82;;;;;;;;;;5050974;28;20413;-80
2023/06/14 10:37:00;;;;;;;31.60;15.80;;;;;;;;;;5034621;28;20037;-79
2023/06/14 10:39:25;;;;;;;34.08;16.58;;;;;;;;;;5021229;28;20046;-79
2023/06/14 10:41:55;;;;;;;28.70;16.10;;;;;;;;;;5011757;28;20456;-81
2023/06/14 10:44:20;;;;;;;28.90;15.45;;;;;;;;;;5013422;28;20030;-80
2023/06/14 10:46:46;;;;;;;28.08;15.13;;;;;;;;;;5012278;28;20037;-79
2023/06/14 10:49:12;;;;;;;32.33;16.55;;;;;;;;;;5028752;28;20348;-80
2023/06/14 10:51:46;;;;;;;32.60;17.80;;;;;;;;;;5013388;28;20064;-80
2023/06/14 10:54:20;;;;;;;30.58;15.65;;;;;;;;;;5012501;28;20045;-80
2023/06/14 10:56:47;;;;;;;28.65;15.70;;;;;;;;;;5012505;28;20040;-79
2023/06/14 10:59:12;;;;;;;23.15;14.90;;;;;;;;;;5012156;28;20037;-79
2023/06/14 11:01:42;;;;;;;28.85;14.82;;;;;;;;;;5012090;28;20037;-80
2023/06/14 11:04:10;;;;;;;27.10;15.00;;;;;;;;;;5011012;28;20144;-80
2023/06/14 11:06:48;;;;;;;27.85;14.90;;;;;;;;;;5027389;28;20042;-80
2023/06/14 11:09:54;;;;;;;26.40;15.13;;;;;;;;;;5026735;28;20049;-80
2023/06/14 11:12:19;;;;;;;24.85;14.13;;;;;;;;;;5012520;28;20107;-80
2023/06/14 11:14:48;;;;;;;27.45;15.70;;;;;;;;;;5030245;28;20025;-80
2023/06/14 11:17:13;;;;;;;24.08;14.80;;;;;;;;;;5030561;28;20089;-80
2023/06/14 11:19:38;;;;;;;26.60;14.95;;;;;;;;;;5031788;28;20029;-80
2023/06/14 11:22:04;;;;;;;24.30;15.27;;;;;;;;;;5032329;28;20083;-79
2023/06/14 11:24:30;;;;;;;24.05;15.63;;;;;;;;;;5016377;28;20034;-80
2023/06/14 11:26:56;;;;;;;30.27;15.20;;;;;;;;;;5015764;28;20065;-80
2023/06/14 11:29:22;;;;;;;25.48;15.73;;;;;;;;;;5016621;28;20034;-80
2023/06/14 11:31:47;;;;;;;31.73;15.30;;;;;;;;;;4999337;28;20045;-80
2023/06/14 11:34:13;;;;;;;25.67;14.55;;;;;;;;;;5015387;28;20026;-81
2023/06/14 11:36:38;;;;;;;27.83;15.57;;;;;;;;;;5015045;28;20384;-79
2023/06/14 11:39:06;;;;;;;26.33;16.58;;;;;;;;;;5015205;28;20033;-80
2023/06/14 11:41:40;;;;;;;29.38;16.13;;;;;;;;;;5015236;28;20192;-80
2023/06/14 11:44:06;;;;;;;27.42;15.60;;;;;;;;;;5031638;28;20116;-78
2023/06/14 11:46:32;;;;;;;25.63;14.13;;;;;;;;;;5031433;28;20363;-80
2023/06/14 11:48:58;;;;;;;28.88;15.00;;;;;;;;;;5014610;28;20034;-79
2023/06/14 11:51:23;;;;;;;28.27;14.35;;;;;;;;;;5015870;28;20028;-80
2023/06/14 11:53:49;;;;;;;29.33;14.20;;;;;;;;;;4998648;28;20034;-79
2023/06/14 11:56:15;;;;;;;27.27;14.85;;;;;;;;;;5015016;28;20101;-82
2023/06/14 11:58:42;;;;;;;22.35;12.60;;;;;;;;;;5014534;28;20061;-79
2023/06/14 12:01:07;;;;;;;19.85;12.52;;;;;;;;;;5030718;28;20046;-79
2023/06/14 12:03:32;;;;;;;21.13;12.00;;;;;;;;;;4998438;28;20036;-79
2023/06/14 12:06:08;;;;;;;22.98;12.43;;;;;;;;;;5014327;28;20088;-81
2023/06/14 12:08:40;;;;;;;20.35;12.02;;;;;;;;;;5014558;28;20030;-81
2023/06/14 12:11:15;;;;;;;27.38;12.65;;;;;;;;;;5014893;28;20061;-81
2023/06/14 12:13:41;;;;;;;22.02;11.93;;;;;;;;;;5014561;28;20355;-81
2023/06/14 12:16:10;;;;;;;21.23;11.55;;;;;;;;;;5014431;28;20706;-80
2023/06/14 12:18:36;;;;;;;17.70;11.02;;;;;;;;;;5030683;28;20367;-80
2023/06/14 12:21:06;;;;;;;25.75;11.70;;;;;;;;;;5014110;28;20038;-80
2023/06/14 12:23:45;;;;;;;24.42;12.00;;;;;;;;;;5030576;28;20041;-81
2023/06/14 12:26:15;;;;;;;26.40;11.38;;;;;;;;;;5030976;28;20438;-81
2023/06/14 12:28:42;;;;;;;20.98;10.63;;;;;;;;;;5014049;28;20080;-80
2023/06/14 12:31:08;;;;;;;21.45;10.75;;;;;;;;;;5014207;28;20034;-81
2023/06/14 12:33:34;;;;;;;18.33;10.35;;;;;;;;;;5030507;28;20041;-82
2023/06/14 12:35:59;;;;;;;20.20;10.90;;;;;;;;;;5015006;28;20160;-81
2023/06/14 12:38:25;;;;;;;20.23;11.93;;;;;;;;;;5015310;28;20407;-81
2023/06/14 12:40:50;;;;;;;23.92;11.85;;;;;;;;;;5015255;28;20041;-78
2023/06/14 12:43:15;;;;;;;19.92;11.90;;;;;;;;;;5014815;28;20052;-81
2023/06/14 12:45:41;;;;;;;23.75;11.65;;;;;;;;;;5014064;28;20030;-80
2023/06/14 12:48:08;;;;;;;21.55;11.80;;;;;;;;;;4998055;28;20026;-81
2023/06/14 12:50:34;;;;;;;22.17;11.75;;;;;;;;;;5013540;28;20038;-82
2023/06/14 12:52:59;;;;;;;20.38;11.68;;;;;;;;;;5013833;28;20080;-82
2023/06/14 12:55:25;;;;;;;22.73;11.85;;;;;;;;;;5015397;28;20021;-82
2023/06/14 12:57:51;;;;;;;22.30;11.25;;;;;;;;;;5013944;28;20061;-82
2023/06/14 13:00:17;;;;;;;21.88;13.10;;;;;;;;;;5015351;28;20026;-79
2023/06/14 13:02:43;;;;;;;19.92;12.85;;;;;;;;;;5013296;28;20408;-78
2023/06/14 13:05:08;;;;;;;17.33;11.52;;;;;;;;;;5029624;28;20034;-80
2023/06/14 13:07:33;;;;;;;24.48;11.77;;;;;;;;;;5014777;28;20404;-80
2023/06/14 13:09:59;;;;;;;31.38;12.15;;;;;;;;;;4997271;28;20029;-79
2023/06/14 13:12:24;;;;;;;19.35;11.40;;;;;;;;;;5014676;28;20026;-80
2023/06/14 13:14:50;;;;;;;21.00;11.82;;;;;;;;;;4996884;28;20037;-80
2023/06/14 13:17:15;;;;;;;19.17;12.10;;;;;;;;;;5014278;28;20030;-80
2023/06/14 13:19:42;;;;;;;25.73;12.18;;;;;;;;;;5014691;28;20036;-80
2023/06/14 13:22:08;;;;;;;22.88;12.10;;;;;;;;;;5014635;28;20372;-80
2023/06/14 13:24:34;;;;;;;22.42;12.27;;;;;;;;;;5013501;28;20180;-80
2023/06/14 13:26:59;;;;;;;22.50;12.82;;;;;;;;;;5013475;28;20436;-80
2023/06/14 13:29:25;;;;;;;20.23;11.82;;;;;;;;;;5014429;28;20021;-80
2023/06/14 13:31:50;;;;;;;17.13;11.18;;;;;;;;;;5014264;28;20032;-80
2023/06/14 13:34:16;;;;;;;24.63;11.73;;;;;;;;;;5029085;28;20040;-80
2023/06/14 13:36:41;;;;;;;27.45;12.23;;;;;;;;;;5013017;28;20356;-81
2023/06/14 13:39:07;;;;;;;27.90;11.80;;;;;;;;;;5029401;28;20022;-80
2023/06/14 13:41:34;;;;;;;23.73;11.30;;;;;;;;;;5014210;28;20054;-80
2023/06/14 13:44:00;;;;;;;20.98;12.07;;;;;;;;;;5014223;28;20033;-80
2023/06/14 13:46:25;;;;;;;24.50;11.88;;;;;;;;;;5029591;28;20037;-80
2023/06/14 13:48:51;;;;;;;19.85;11.90;;;;;;;;;;5014617;28;20037;-80
2023/06/14 13:51:18;;;;;;;19.48;10.73;;;;;;;;;;5014593;28;20022;-80
2023/06/14 13:53:46;;;;;;;24.63;11.52;;;;;;;;;;5013108;28;20061;-80
2023/06/14 13:56:11;;;;;;;18.45;11.50;;;;;;;;;;5014056;28;20479;-80
2023/06/14 13:58:37;;;;;;;18.95;11.30;;;;;;;;;;5013820;28;20042;-80
2023/06/14 14:01:03;;;;;;;19.90;11.48;;;;;;;;;;5012609;28;20057;-80
2023/06/14 14:03:28;;;;;;;16.67;11.40;;;;;;;;;;5029077;28;20482;-79
2023/06/14 14:05:54;;;;;;;19.63;11.52;;;;;;;;;;5012666;28;20021;-80
2023/06/14 14:08:19;;;;;;;18.58;11.43;;;;;;;;;;5028959;28;20459;-80
2023/06/14 14:10:45;;;;;;;17.95;11.27;;;;;;;;;;5029043;28;20025;-80
2023/06/14 14:13:12;;;;;;;22.88;11.45;;;;;;;;;;5012432;28;20084;-80
2023/06/14 14:15:37;;;;;;;17.00;10.80;;;;;;;;;;5012348;28;20539;-80
2023/06/14 14:18:03;;;;;;;17.73;10.63;;;;;;;;;;5013707;28;20026;-80
2023/06/14 14:20:30;;;;;;;14.95;9.48;;;;;;;;;;5012576;28;20052;-80
2023/06/14 14:22:55;;;;;;;15.25;9.90;;;;;;;;;;5014076;28;20041;-80
2023/06/14 14:25:21;;;;;;;16.30;8.98;;;;;;;;;;5029217;28;20084;-79
2023/06/14 14:27:47;;;;;;;14.48;9.27;;;;;;;;;;5012572;28;20026;-80
2023/06/14 14:30:14;;;;;;;16.00;9.02;;;;;;;;;;5013244;28;20117;-81